createdAt,value
2019-03-05T00:00:36.910Z,6.70
2019-03-05T00:03:07.203Z,5.37
2019-03-05T00:05:37.622Z,6.43
2019-03-05T00:08:08.115Z,3.57
2019-03-05T00:10:38.530Z,3.13
2019-03-05T00:13:08.744Z,7.03
2019-03-05T00:15:39.401Z,4.20
2019-03-05T00:18:09.618Z,6.43
2019-03-05T00:20:39.844Z,7.30
2019-03-05T00:23:10.610Z,6.12
2019-03-05T00:25:40.806Z,7.20
2019-03-05T00:28:42.633Z,4.27
2019-03-05T00:31:27.914Z,6.67
2019-03-05T00:34:04.289Z,2.03
2019-03-05T00:36:40.594Z,8.07
2019-03-05T00:39:31.846Z,3.57
2019-03-05T00:42:10.790Z,3.50
2019-03-05T00:45:13.066Z,2.60
2019-03-05T00:48:01.348Z,2.10
2019-03-05T00:50:37.403Z,2.00
2019-03-05T00:53:28.798Z,4.57
2019-03-05T00:56:20.063Z,3.57
2019-03-05T00:58:56.215Z,4.27
2019-03-05T01:01:29.511Z,1.70
2019-03-05T01:04:14.586Z,1.63
2019-03-05T01:06:45.096Z,2.73
2019-03-05T01:09:17.534Z,1.83
2019-03-05T01:11:48.626Z,1.40
2019-03-05T01:14:19.285Z,0.77
2019-03-05T01:16:49.793Z,0.67
2019-03-05T01:19:20.056Z,2.20
2019-03-05T01:21:50.651Z,1.30
2019-03-05T01:24:21.315Z,1.47
2019-03-05T01:26:51.526Z,1.30
2019-03-05T01:29:22.034Z,1.90
2019-03-05T01:31:59.690Z,0.47
2019-03-05T01:34:31.530Z,0.83
2019-03-05T01:37:03.654Z,1.00
2019-03-05T01:39:44.509Z,0.80
2019-03-05T01:42:14.732Z,1.10
2019-03-05T01:44:44.956Z,1.70
2019-03-05T01:47:15.165Z,0.60
2019-03-05T01:49:45.630Z,0.83
2019-03-05T01:52:15.847Z,0.60
2019-03-05T01:54:46.280Z,0.70
2019-03-05T01:57:16.815Z,1.13
2019-03-05T01:59:47.033Z,4.80
2019-03-05T02:02:17.250Z,2.23
2019-03-05T02:04:47.475Z,0.80
2019-03-05T02:07:18.136Z,1.40
2019-03-05T02:09:48.359Z,1.63
2019-03-05T02:12:18.786Z,1.23
2019-03-05T02:14:49.007Z,1.47
2019-03-05T02:17:19.216Z,1.20
2019-03-05T02:19:49.421Z,2.00
2019-03-05T02:22:26.049Z,4.07
2019-03-05T02:25:02.330Z,4.37
2019-03-05T02:27:47.850Z,4.00
2019-03-05T02:30:50.040Z,2.40
2019-03-05T02:33:59.622Z,2.30
2019-03-05T02:36:54.011Z,3.47
2019-03-05T02:39:42.574Z,4.13
2019-03-05T02:42:18.891Z,5.73
2019-03-05T02:45:04.183Z,4.43
2019-03-05T02:47:40.499Z,5.10
2019-03-05T02:50:19.596Z,1.37
2019-03-05T02:53:08.303Z,1.80
2019-03-05T02:56:33.415Z,2.77
2019-03-05T02:59:03.497Z,3.60
2019-03-05T03:01:41.637Z,5.43
2019-03-05T03:04:13.511Z,2.13
2019-03-05T03:06:43.732Z,6.03
2019-03-05T03:09:26.012Z,5.97
2019-03-05T03:11:56.267Z,1.90
2019-03-05T03:14:26.454Z,4.63
2019-03-05T03:16:56.723Z,4.37
2019-03-05T03:19:27.233Z,8.00
2019-03-05T03:21:57.417Z,5.13
2019-03-05T03:24:28.191Z,5.07
2019-03-05T03:26:58.392Z,3.03
2019-03-05T03:29:28.605Z,4.43
2019-03-05T03:31:58.784Z,1.97
2019-03-05T03:34:29.000Z,4.20
2019-03-05T03:36:59.205Z,4.77
2019-03-05T03:39:29.415Z,8.80
2019-03-05T03:42:00.003Z,7.10
2019-03-05T03:44:30.223Z,4.57
2019-03-05T03:47:00.440Z,5.63
2019-03-05T03:49:30.954Z,3.47
2019-03-05T03:52:01.163Z,2.67
2019-03-05T03:54:31.710Z,3.97
2019-03-05T03:57:01.918Z,3.27
2019-03-05T03:59:32.139Z,4.00
2019-03-05T04:02:02.340Z,4.67
2019-03-05T04:04:32.786Z,6.73
2019-03-05T04:07:02.990Z,5.17
2019-03-05T04:09:33.207Z,2.37
2019-03-05T04:12:03.720Z,4.70
2019-03-05T04:14:34.122Z,7.37
2019-03-05T04:17:04.361Z,4.07
2019-03-05T04:19:35.499Z,5.13
2019-03-05T04:22:05.713Z,4.93
2019-03-05T04:24:35.901Z,2.00
2019-03-05T04:27:06.122Z,4.10
2019-03-05T04:29:36.311Z,3.73
2019-03-05T04:32:06.834Z,4.87
2019-03-05T04:34:37.030Z,4.83
2019-03-05T04:37:07.254Z,3.53
2019-03-05T04:39:37.722Z,5.73
2019-03-05T04:42:07.951Z,6.77
2019-03-05T04:44:39.777Z,6.20
2019-03-05T04:47:09.986Z,3.83
2019-03-05T04:49:44.774Z,5.50
2019-03-05T04:52:17.023Z,5.20
2019-03-05T04:54:47.554Z,3.67
2019-03-05T04:57:18.358Z,2.60
2019-03-05T04:59:48.545Z,5.30
2019-03-05T05:02:18.758Z,4.10
2019-03-05T05:04:48.966Z,5.20
2019-03-05T05:07:19.246Z,7.03
2019-03-05T05:09:49.512Z,6.00
2019-03-05T05:12:19.738Z,5.37
2019-03-05T05:14:49.933Z,4.27
2019-03-05T05:17:20.145Z,6.10
2019-03-05T05:19:50.340Z,5.67
2019-03-05T05:22:20.564Z,6.03
2019-03-05T05:24:50.759Z,4.80
2019-03-05T05:27:20.970Z,2.90
2019-03-05T05:29:51.169Z,5.60
2019-03-05T05:32:21.383Z,3.53
2019-03-05T05:34:51.874Z,3.47
2019-03-05T05:37:22.061Z,5.13
2019-03-05T05:40:20.993Z,6.30
2019-03-05T05:42:51.418Z,3.50
2019-03-05T05:45:34.155Z,3.50
2019-03-05T05:48:04.348Z,4.20
2019-03-05T05:50:34.563Z,6.70
2019-03-05T05:53:04.751Z,5.27
2019-03-05T05:55:35.218Z,4.63
2019-03-05T05:58:05.426Z,3.93
2019-03-05T06:00:37.443Z,5.33
2019-03-05T06:03:07.632Z,4.80
2019-03-05T06:05:37.842Z,6.93
2019-03-05T06:08:08.104Z,5.47
2019-03-05T06:10:38.402Z,3.97
2019-03-05T06:13:08.595Z,4.87
2019-03-05T06:15:38.888Z,3.73
2019-03-05T06:18:09.424Z,5.20
2019-03-05T06:20:42.459Z,4.17
2019-03-05T06:23:11.842Z,3.90
2019-03-05T06:25:42.072Z,2.67
2019-03-05T06:28:12.259Z,2.47
2019-03-05T06:30:43.238Z,4.30
2019-03-05T06:33:13.517Z,4.17
2019-03-05T06:35:44.047Z,3.00
2019-03-05T06:38:14.258Z,5.97
2019-03-05T06:40:44.467Z,4.27
2019-03-05T06:43:14.658Z,4.17
2019-03-05T06:45:45.161Z,3.70
2019-03-05T06:48:15.393Z,2.80
2019-03-05T06:50:45.602Z,2.73
2019-03-05T06:53:15.799Z,2.57
2019-03-05T06:55:46.375Z,3.73
2019-03-05T06:58:16.587Z,2.63
2019-03-05T07:00:46.797Z,3.87
2019-03-05T07:03:17.018Z,2.10
2019-03-05T07:06:23.504Z,3.67
2019-03-05T07:09:11.802Z,2.40
2019-03-05T07:12:00.346Z,6.50
2019-03-05T07:14:41.910Z,4.47
2019-03-05T07:17:20.722Z,2.27
2019-03-05T07:20:16.482Z,2.37
2019-03-05T07:23:17.279Z,2.73
2019-03-05T07:25:47.466Z,2.27
2019-03-05T07:28:17.969Z,4.10
2019-03-05T07:30:48.503Z,3.93
2019-03-05T07:33:19.414Z,6.90
2019-03-05T07:35:49.986Z,5.63
2019-03-05T07:38:20.216Z,3.30
2019-03-05T07:40:50.410Z,2.53
2019-03-05T07:43:20.625Z,2.20
2019-03-05T07:45:50.813Z,5.83
2019-03-05T07:48:21.053Z,1.47
2019-03-05T07:50:51.542Z,2.37
2019-03-05T07:53:22.066Z,4.20
2019-03-05T07:55:52.250Z,1.37
2019-03-05T07:58:22.457Z,2.60
2019-03-05T08:00:52.930Z,1.73
2019-03-05T08:03:23.125Z,1.20
2019-03-05T08:05:53.329Z,1.97
2019-03-05T08:09:00.364Z,1.63
2019-03-05T08:11:31.830Z,2.03
2019-03-05T08:14:25.071Z,2.33
2019-03-05T08:16:55.594Z,1.00
2019-03-05T08:19:25.802Z,1.93
2019-03-05T08:21:56.002Z,0.70
2019-03-05T08:24:26.230Z,0.97
2019-03-05T08:26:56.419Z,0.80
2019-03-05T08:29:26.919Z,1.13
2019-03-05T08:31:57.441Z,1.00
2019-03-05T08:34:27.977Z,0.77
2019-03-05T08:36:58.191Z,1.97
2019-03-05T08:39:28.388Z,0.30
2019-03-05T08:41:58.614Z,0.67
2019-03-05T08:44:28.829Z,0.80
2019-03-05T08:46:59.037Z,0.60
2019-03-05T08:49:29.308Z,0.70
2019-03-05T08:51:59.535Z,0.40
2019-03-05T08:54:29.715Z,0.70
2019-03-05T08:56:59.942Z,1.07
2019-03-05T08:59:32.526Z,0.30
2019-03-05T09:02:02.079Z,0.57
2019-03-05T09:04:32.522Z,1.23
2019-03-05T09:07:02.809Z,0.40
2019-03-05T09:09:33.086Z,0.80
2019-03-05T09:12:03.582Z,1.33
2019-03-05T09:14:34.599Z,0.93
2019-03-05T09:17:05.562Z,0.47
2019-03-05T09:19:35.756Z,1.33
2019-03-05T09:22:06.152Z,0.63
2019-03-05T09:24:36.334Z,1.00
2019-03-05T09:27:06.553Z,0.47
2019-03-05T09:29:36.753Z,1.10
2019-03-05T09:32:06.973Z,0.30
2019-03-05T09:34:37.170Z,0.40
2019-03-05T09:37:07.453Z,0.60
2019-03-05T09:39:37.641Z,0.93
2019-03-05T09:42:07.875Z,0.60
2019-03-05T09:44:38.058Z,0.80
2019-03-05T09:47:08.297Z,1.30
2019-03-05T09:49:39.017Z,0.70
2019-03-05T09:52:09.241Z,1.27
2019-03-05T09:54:39.973Z,0.60
2019-03-05T09:57:10.268Z,0.40
2019-03-05T09:59:40.511Z,0.50
2019-03-05T10:02:10.690Z,0.57
2019-03-05T10:04:41.458Z,1.87
2019-03-05T10:07:18.853Z,0.80
2019-03-05T10:09:44.130Z,0.83
2019-03-05T10:12:14.325Z,0.70
2019-03-05T10:14:45.105Z,2.50
2019-03-05T10:17:15.290Z,3.20
2019-03-05T10:19:46.067Z,0.88
2019-03-05T10:22:16.829Z,0.50
2019-03-05T10:24:47.561Z,0.70
2019-03-05T10:27:18.339Z,0.40
2019-03-05T10:29:49.189Z,1.10
2019-03-05T10:32:19.986Z,0.30
2019-03-05T10:34:50.926Z,0.55
2019-03-05T10:37:21.742Z,0.37
2019-03-05T10:39:52.666Z,0.30
2019-03-05T10:42:23.687Z,0.50
2019-03-05T10:44:54.617Z,0.60
2019-03-05T10:47:25.365Z,0.78
2019-03-05T10:49:56.402Z,0.60
2019-03-05T10:52:27.234Z,0.95
2019-03-05T10:54:57.976Z,0.40
2019-03-05T10:57:28.750Z,0.50
2019-03-05T10:59:59.505Z,0.90
2019-03-05T11:02:30.702Z,0.50
2019-03-05T11:05:01.714Z,0.98
2019-03-05T11:07:32.473Z,0.30
2019-03-05T11:10:03.855Z,1.47
2019-03-05T11:12:34.781Z,0.53
2019-03-05T11:15:08.890Z,0.53
2019-03-05T11:17:39.741Z,2.02
2019-03-05T11:20:10.832Z,1.00
2019-03-05T11:22:41.943Z,0.55
2019-03-05T11:25:14.625Z,0.40
2019-03-05T11:27:45.646Z,0.62
2019-03-05T11:30:35.254Z,1.30
2019-03-05T11:32:57.250Z,0.33
2019-03-05T11:35:30.073Z,0.82
2019-03-05T11:38:01.078Z,1.17
2019-03-05T11:40:32.329Z,1.17
2019-03-05T11:43:10.337Z,2.12
2019-03-05T11:45:42.590Z,1.10
2019-03-05T11:48:14.468Z,1.45
2019-03-05T11:50:45.555Z,0.72
2019-03-05T11:53:16.329Z,1.65
2019-03-05T11:55:47.057Z,1.20
2019-03-05T11:58:17.848Z,1.40
2019-03-05T12:00:50.782Z,1.65
2019-03-05T12:03:21.974Z,1.77
2019-03-05T12:05:52.739Z,2.60
2019-03-05T12:08:23.673Z,3.45
2019-03-05T12:10:54.679Z,1.90
2019-03-05T12:13:25.643Z,1.52
2019-03-05T12:15:56.563Z,2.50
2019-03-05T12:18:27.360Z,1.35
2019-03-05T12:20:58.089Z,2.15
2019-03-05T12:23:29.192Z,1.60
2019-03-05T12:26:00.230Z,1.85
2019-03-05T12:28:31.022Z,2.45
2019-03-05T12:31:01.763Z,1.95
2019-03-05T12:33:33.031Z,1.15
2019-03-05T12:36:06.771Z,2.15
2019-03-05T12:38:37.562Z,2.42
2019-03-05T12:41:08.658Z,3.65
2019-03-05T12:43:39.426Z,0.40
2019-03-05T12:46:10.436Z,1.27
2019-03-05T12:48:41.206Z,1.90
2019-03-05T12:51:12.042Z,1.70
2019-03-05T12:53:42.841Z,0.88
2019-03-05T12:56:23.333Z,1.00
2019-03-05T12:58:46.453Z,1.15
2019-03-05T13:01:17.506Z,0.45
2019-03-05T13:03:48.274Z,0.57
2019-03-05T13:06:19.026Z,0.93
2019-03-05T13:08:50.129Z,2.20
2019-03-05T13:11:20.866Z,0.45
2019-03-05T13:14:05.388Z,3.30
2019-03-05T13:16:24.427Z,1.05
2019-03-05T13:18:58.258Z,0.75
2019-03-05T13:21:28.489Z,2.77
2019-03-05T13:23:59.580Z,0.47
2019-03-05T13:26:30.325Z,1.62
2019-03-05T13:29:01.338Z,0.65
2019-03-05T13:31:32.390Z,1.40
2019-03-05T13:34:03.166Z,1.17
2019-03-05T13:36:33.942Z,2.05
2019-03-05T13:39:05.953Z,1.47
2019-03-05T13:41:36.734Z,3.47
2019-03-05T13:44:10.603Z,1.10
2019-03-05T13:46:41.365Z,2.22
2019-03-05T13:49:24.004Z,1.87
2019-03-05T13:52:10.198Z,0.98
2019-03-05T13:55:02.355Z,0.88
2019-03-05T13:57:43.618Z,0.80
2019-03-05T14:00:15.273Z,0.95
2019-03-05T14:03:06.741Z,0.62
2019-03-05T14:05:55.571Z,1.67
2019-03-05T14:08:47.538Z,2.15
2019-03-05T14:11:18.473Z,1.60
2019-03-05T14:13:49.221Z,1.37
2019-03-05T14:16:21.782Z,2.65
2019-03-05T14:18:52.525Z,2.40
2019-03-05T14:21:23.331Z,2.22
2019-03-05T14:23:54.347Z,2.95
2019-03-05T14:26:25.278Z,1.92
2019-03-05T14:28:56.009Z,0.60
2019-03-05T14:31:27.054Z,1.62
2019-03-05T14:33:57.803Z,3.25
2019-03-05T14:36:28.952Z,1.12
2019-03-05T14:39:01.653Z,2.95
2019-03-05T14:41:32.430Z,3.30
2019-03-05T14:44:03.372Z,1.07
2019-03-05T14:46:34.258Z,3.00
2019-03-05T14:49:05.392Z,0.70
2019-03-05T14:51:36.552Z,1.57
2019-03-05T14:54:07.546Z,0.55
2019-03-05T14:56:38.629Z,1.65
2019-03-05T14:59:09.413Z,1.40
2019-03-05T15:01:40.525Z,2.62
2019-03-05T15:04:11.543Z,2.50
2019-03-05T15:06:42.399Z,1.45
2019-03-05T15:09:14.004Z,3.77
2019-03-05T15:11:44.820Z,1.37
2019-03-05T15:14:15.977Z,1.12
2019-03-05T15:16:46.748Z,1.17
2019-03-05T15:19:21.628Z,1.90
2019-03-05T15:21:50.631Z,3.77
2019-03-05T15:24:21.489Z,4.03
2019-03-05T15:26:52.683Z,5.08
2019-03-05T15:29:23.754Z,1.87
2019-03-05T15:31:54.871Z,2.55
2019-03-05T15:34:25.741Z,2.15
2019-03-05T15:36:56.845Z,3.98
2019-03-05T15:39:28.150Z,2.70
2019-03-05T15:41:58.981Z,2.27
2019-03-05T15:44:29.935Z,1.70
2019-03-05T15:47:00.715Z,3.25
2019-03-05T15:49:31.769Z,3.05
2019-03-05T15:52:02.821Z,4.97
2019-03-05T15:54:33.594Z,2.37
2019-03-05T15:57:04.344Z,1.57
2019-03-05T15:59:35.194Z,5.00
2019-03-05T16:02:06.061Z,1.22
2019-03-05T16:04:39.678Z,2.33
2019-03-05T16:07:11.003Z,2.10
2019-03-05T16:09:43.918Z,1.98
2019-03-05T16:12:14.938Z,3.45
2019-03-05T16:14:47.517Z,1.67
2019-03-05T16:17:18.709Z,4.62
2019-03-05T16:19:52.800Z,2.85
2019-03-05T16:22:24.279Z,2.10
2019-03-05T16:24:54.531Z,3.02
2019-03-05T16:27:30.036Z,1.95
2019-03-05T16:29:58.249Z,3.65
2019-03-05T16:32:33.935Z,3.98
2019-03-05T16:35:23.362Z,2.55
2019-03-05T16:37:57.681Z,2.27
2019-03-05T16:40:30.512Z,2.42
2019-03-05T16:43:18.242Z,4.30
2019-03-05T16:45:59.465Z,3.67
2019-03-05T16:48:47.259Z,4.20
2019-03-05T16:51:19.738Z,2.20
2019-03-05T16:53:52.847Z,2.85
2019-03-05T16:56:27.857Z,2.10
2019-03-05T16:59:09.618Z,2.72
2019-03-05T17:01:59.919Z,2.92
2019-03-05T17:04:47.647Z,3.30
2019-03-05T17:07:25.769Z,1.40
2019-03-05T17:10:07.186Z,4.70
2019-03-05T17:12:38.013Z,2.02
2019-03-05T17:15:10.322Z,2.98
2019-03-05T17:17:41.083Z,4.33
2019-03-05T17:20:12.142Z,3.22
2019-03-05T17:22:43.150Z,2.58
2019-03-05T17:25:20.306Z,2.50
2019-03-05T17:27:51.694Z,4.72
2019-03-05T17:30:23.972Z,3.25
2019-03-05T17:32:55.692Z,4.03
2019-03-05T17:35:26.470Z,3.83
2019-03-05T17:37:57.516Z,6.92
2019-03-05T17:40:28.554Z,5.10
2019-03-05T17:42:59.330Z,5.53
2019-03-05T17:45:30.344Z,2.83
2019-03-05T17:48:01.471Z,5.50
2019-03-05T17:50:32.249Z,4.75
2019-03-05T17:53:03.009Z,6.47
2019-03-05T17:55:34.192Z,2.30
2019-03-05T17:58:05.798Z,2.62
2019-03-05T18:00:41.408Z,6.65
2019-03-05T18:03:12.449Z,5.15
2019-03-05T18:05:43.523Z,3.08
2019-03-05T18:08:14.526Z,5.67
2019-03-05T18:10:45.326Z,3.47
2019-03-05T18:13:16.073Z,3.20
2019-03-05T18:15:46.847Z,4.05
2019-03-05T18:18:18.307Z,4.20
2019-03-05T18:20:49.094Z,4.58
2019-03-05T18:23:19.842Z,3.55
2019-03-05T18:25:50.621Z,3.83
2019-03-05T18:28:21.657Z,2.85
2019-03-05T18:30:52.469Z,2.83
2019-03-05T18:33:23.382Z,5.37
2019-03-05T18:35:54.598Z,5.50
2019-03-05T18:38:25.746Z,5.95
2019-03-05T18:40:56.559Z,3.33
2019-03-05T18:43:27.378Z,3.05
2019-03-05T18:45:58.225Z,4.67
2019-03-05T18:48:29.286Z,4.50
2019-03-05T18:51:00.405Z,5.28
2019-03-05T18:53:31.486Z,3.98
2019-03-05T18:56:02.244Z,5.20
2019-03-05T18:58:33.110Z,4.62
2019-03-05T19:01:04.033Z,4.00
2019-03-05T19:03:35.162Z,5.78
2019-03-05T19:06:06.131Z,4.65
2019-03-05T19:08:36.906Z,2.52
2019-03-05T19:11:07.965Z,3.47
2019-03-05T19:13:38.742Z,2.25
2019-03-05T19:16:09.509Z,3.42
2019-03-05T19:18:40.590Z,2.65
2019-03-05T19:21:11.718Z,4.85
2019-03-05T19:23:42.101Z,3.60
2019-03-05T19:26:12.769Z,3.20
2019-03-05T19:28:43.938Z,4.60
2019-03-05T19:31:14.701Z,2.95
2019-03-05T19:33:45.518Z,1.50
2019-03-05T19:36:16.291Z,3.00
2019-03-05T19:38:47.077Z,4.67
2019-03-05T19:41:17.817Z,2.72
2019-03-05T19:43:48.049Z,2.37
2019-03-05T19:46:18.243Z,2.67
2019-03-05T19:48:49.322Z,4.37
2019-03-05T19:51:20.366Z,3.15
2019-03-05T19:53:51.141Z,6.45
2019-03-05T19:56:22.162Z,4.00
2019-03-05T19:58:53.195Z,3.83
2019-03-05T20:01:25.047Z,4.37
2019-03-05T20:03:55.836Z,3.90
2019-03-05T20:06:26.937Z,5.20
2019-03-05T20:08:58.182Z,10.48
2019-03-05T20:11:28.725Z,3.60
2019-03-05T20:13:59.784Z,2.87
2019-03-05T20:16:30.040Z,6.60
2019-03-05T20:19:00.231Z,3.10
2019-03-05T20:21:30.528Z,4.90
2019-03-05T20:24:00.809Z,3.47
2019-03-05T20:26:31.158Z,2.93
2019-03-05T20:29:01.776Z,1.53
2019-03-05T20:31:32.080Z,3.80
2019-03-05T20:34:05.529Z,3.55
2019-03-05T20:36:36.852Z,5.87
2019-03-05T20:39:07.838Z,5.20
2019-03-05T20:41:39.104Z,3.47
2019-03-05T20:44:09.572Z,5.90
2019-03-05T20:46:41.179Z,3.47
2019-03-05T20:49:11.935Z,5.17
2019-03-05T20:51:44.186Z,2.63
2019-03-05T20:54:14.532Z,2.70
2019-03-05T20:56:45.367Z,6.00
2019-03-05T20:59:16.010Z,5.80
2019-03-05T21:01:46.323Z,5.87
2019-03-05T21:04:16.671Z,7.13
2019-03-05T21:06:46.914Z,4.70
2019-03-05T21:09:21.586Z,6.67
2019-03-05T21:11:52.082Z,4.53
2019-03-05T21:14:22.692Z,4.13
2019-03-05T21:16:53.058Z,3.90
2019-03-05T21:19:23.319Z,4.47
2019-03-05T21:21:53.508Z,4.07
2019-03-05T21:24:24.131Z,10.30
2019-03-05T21:26:54.634Z,3.80
2019-03-05T21:29:24.855Z,5.30
2019-03-05T21:31:55.056Z,1.97
2019-03-05T21:34:25.271Z,3.27
2019-03-05T21:36:55.474Z,3.90
2019-03-05T21:39:25.693Z,4.20
2019-03-05T21:41:56.287Z,3.17
2019-03-05T21:44:26.504Z,2.57
2019-03-05T21:46:56.883Z,5.67
2019-03-05T21:49:27.105Z,4.93
2019-03-05T21:51:57.304Z,3.07
2019-03-05T21:54:27.807Z,4.60
2019-03-05T21:56:58.335Z,5.90
2019-03-05T21:59:28.542Z,5.10
2019-03-05T22:01:58.742Z,5.33
2019-03-05T22:04:29.215Z,4.67
2019-03-05T22:06:59.434Z,6.50
2019-03-05T22:09:30.179Z,4.67
2019-03-05T22:12:00.717Z,4.57
2019-03-05T22:14:31.242Z,2.40
2019-03-05T22:17:01.469Z,4.40
2019-03-05T22:19:31.654Z,4.03
2019-03-05T22:22:01.867Z,5.43
2019-03-05T22:24:32.358Z,5.20
2019-03-05T22:27:02.883Z,4.00
2019-03-05T22:29:33.942Z,5.35
2019-03-05T22:32:04.585Z,6.73
2019-03-05T22:34:34.798Z,4.10
2019-03-05T22:37:05.022Z,9.47
2019-03-05T22:39:35.211Z,3.33
2019-03-05T22:42:06.075Z,4.30
2019-03-05T22:44:36.284Z,5.57
2019-03-05T22:47:06.839Z,5.33
2019-03-05T22:49:37.023Z,5.90
2019-03-05T22:52:07.246Z,4.57
2019-03-05T22:54:37.632Z,7.00
2019-03-05T22:57:07.849Z,6.03
2019-03-05T22:59:38.041Z,5.20
2019-03-05T23:02:08.449Z,5.43
2019-03-05T23:04:38.934Z,4.70
2019-03-05T23:07:10.168Z,5.30
2019-03-05T23:09:40.698Z,4.17
2019-03-05T23:12:11.257Z,4.50
2019-03-05T23:14:41.774Z,5.63
2019-03-05T23:17:12.566Z,7.70
2019-03-05T23:19:43.363Z,5.95
2019-03-05T23:22:15.091Z,5.08
2019-03-05T23:24:45.528Z,9.23
2019-03-05T23:27:16.685Z,11.28
2019-03-05T23:29:47.934Z,10.63
2019-03-05T23:32:19.057Z,8.28
2019-03-05T23:34:50.322Z,4.92
2019-03-05T23:37:21.465Z,7.97
2019-03-05T23:39:52.233Z,7.90
2019-03-05T23:42:23.563Z,5.78
2019-03-05T23:44:54.606Z,6.20
2019-03-05T23:47:25.642Z,6.78
2019-03-05T23:49:56.687Z,7.45
2019-03-05T23:52:27.467Z,7.50
2019-03-05T23:54:58.248Z,7.10
2019-03-05T23:57:29.025Z,9.40
